Time;durP1;ratioP1;P1;durP2;ratioP2;P2;SDS_P1;SDS_P2;PMS_P1;PMS_P2;Temp;Humidity;BMP_temperature;BMP_pressure;BME280_temperature;BME280_humidity;BME280_pressure;Samples;Min_cycle;Max_cycle;Signal;HPM_P1;HPM_P2
2023/06/06 00:00:06;;;;;;;16.75;10.30;;;512.00;2380.80;;;;;;5034101;28;20022;-82
2023/06/06 00:02:33;;;;;;;14.63;10.68;;;487.30;2380.80;;;;;;5035021;28;20027;-82
2023/06/06 00:05:00;;;;;;;14.13;10.15;;;512.00;2380.80;;;;;;5033311;28;20046;-83
2023/06/06 00:07:28;;;;;;;12.63;9.60;;;512.00;2380.80;;;;;;5033435;28;20080;-82
2023/06/06 00:09:54;;;;;;;16.65;10.60;;;512.00;2380.80;;;;;;5033322;28;20025;-83
2023/06/06 00:12:20;;;;;;;14.32;10.00;;;487.30;2380.80;;;;;;5032953;28;20033;-82
2023/06/06 00:14:46;;;;;;;16.00;11.38;;;512.00;2380.80;;;;;;5033061;28;20026;-83
2023/06/06 00:17:14;;;;;;;15.52;10.38;;;512.00;2380.80;;;;;;5032964;28;20087;-81
2023/06/06 00:19:42;;;;;;;13.38;10.48;;;512.00;2380.80;;;;;;5033327;28;20051;-81
2023/06/06 00:22:11;;;;;;;14.55;10.85;;;512.60;2380.80;;;;;;5034330;28;20149;-82
2023/06/06 00:24:37;;;;;;;12.10;10.00;;;487.30;2380.80;;;;;;5034651;28;20029;-83
2023/06/06 00:27:03;;;;;;;12.68;9.65;;;487.30;2380.80;;;;;;5033225;28;20116;-83
2023/06/06 00:29:28;;;;;;;14.63;10.00;;;512.00;2380.80;;;;;;5034299;28;20051;-83
2023/06/06 00:31:54;;;;;;;14.13;10.23;;;512.00;2380.80;;;;;;5032780;28;20030;-83
2023/06/06 00:34:20;;;;;;;12.20;9.10;;;512.10;2380.80;;;;;;5033061;28;20036;-82
2023/06/06 00:36:46;;;;;;;15.52;10.13;;;512.20;2380.80;;;;;;5033061;28;20033;-82
2023/06/06 00:39:12;;;;;;;14.70;10.30;;;512.10;2380.80;;;;;;5032846;28;20033;-83
2023/06/06 00:41:37;;;;;;;16.40;11.23;;;512.10;2380.80;;;;;;5032751;28;20021;-82
2023/06/06 00:44:03;;;;;;;16.17;10.75;;;512.00;2380.80;;;;;;5032965;28;20060;-83
2023/06/06 00:46:29;;;;;;;15.70;11.00;;;487.30;2380.80;;;;;;5033845;28;20071;-83
2023/06/06 00:48:55;;;;;;;12.60;10.20;;;487.10;2380.80;;;;;;5032904;28;20032;-82
2023/06/06 00:51:21;;;;;;;12.35;10.90;;;487.30;2380.80;;;;;;5034236;28;20036;-82
2023/06/06 00:53:48;;;;;;;14.98;10.35;;;487.30;2380.80;;;;;;5032558;28;20041;-82
2023/06/06 00:56:14;;;;;;;14.18;10.70;;;487.30;2380.80;;;;;;5032587;28;20030;-83
2023/06/06 00:58:42;;;;;;;13.63;10.93;;;487.30;2380.80;;;;;;5034093;28;20382;-83
2023/06/06 01:01:11;;;;;;;15.00;10.90;;;487.30;2380.80;;;;;;5032533;28;20026;-82
2023/06/06 01:03:40;;;;;;;13.73;10.90;;;487.30;2380.80;;;;;;5032586;28;20029;-83
2023/06/06 01:06:08;;;;;;;16.48;12.20;;;486.90;2380.80;;;;;;5032103;28;20049;-82
2023/06/06 01:08:35;;;;;;;14.73;11.27;;;487.30;2380.80;;;;;;5032805;28;20052;-82
2023/06/06 01:11:10;;;;;;;16.00;11.50;;;487.30;2380.80;;;;;;5032677;28;20022;-83
2023/06/06 01:13:50;;;;;;;16.73;11.50;;;487.10;2380.80;;;;;;5032501;28;20124;-83
2023/06/06 01:16:20;;;;;;;14.70;11.82;;;487.10;2380.80;;;;;;5032593;28;20063;-82
2023/06/06 01:18:48;;;;;;;16.63;11.90;;;487.10;2380.80;;;;;;5032508;28;20022;-81
2023/06/06 01:21:15;;;;;;;17.00;11.85;;;487.10;2380.80;;;;;;5032559;28;20029;-83
2023/06/06 01:23:43;;;;;;;18.17;12.90;;;487.00;2380.80;;;;;;5032541;28;20056;-83
2023/06/06 01:26:10;;;;;;;14.63;10.98;;;487.00;2380.80;;;;;;5032620;28;20035;-83
2023/06/06 01:28:36;;;;;;;15.60;11.60;;;487.10;2380.80;;;;;;5033410;28;20099;-82
2023/06/06 01:31:03;;;;;;;13.98;12.27;;;487.10;2380.80;;;;;;5033681;28;20061;-82
2023/06/06 01:33:46;;;;;;;15.95;12.30;;;487.10;2380.80;;;;;;5032450;28;20033;-83
2023/06/06 01:36:25;;;;;;;12.98;10.95;;;487.10;2380.80;;;;;;5032426;28;20041;-83
2023/06/06 01:38:59;;;;;;;14.90;11.13;;;487.10;2380.80;;;;;;5032645;28;20083;-83
2023/06/06 01:41:28;;;;;;;17.00;11.15;;;487.10;2380.80;;;;;;5033049;28;20030;-82
2023/06/06 01:43:55;;;;;;;16.15;11.35;;;487.10;2380.80;;;;;;5036224;28;20461;-84
2023/06/06 01:46:24;;;;;;;18.05;11.77;;;487.10;2380.80;;;;;;5037170;28;20026;-82
2023/06/06 01:48:50;;;;;;;12.70;11.40;;;487.10;2380.80;;;;;;5035881;28;20029;-83
2023/06/06 01:51:16;;;;;;;15.77;10.43;;;487.10;2380.80;;;;;;5036888;28;20036;-83
2023/06/06 01:53:42;;;;;;;15.63;12.90;;;487.00;2380.80;;;;;;5035810;28;20363;-82
2023/06/06 01:56:13;;;;;;;14.30;11.63;;;487.00;2380.80;;;;;;5037028;28;20084;-83
2023/06/06 01:58:42;;;;;;;13.25;11.15;;;486.90;2380.80;;;;;;5035999;28;20120;-81
2023/06/06 02:01:08;;;;;;;13.93;10.43;;;487.00;2380.80;;;;;;5037236;28;20508;-83
2023/06/06 02:03:36;;;;;;;14.52;11.32;;;486.90;2380.80;;;;;;5035845;28;20021;-84
2023/06/06 02:06:04;;;;;;;14.43;11.73;;;486.80;2380.80;;;;;;5035390;28;20062;-82
2023/06/06 02:08:29;;;;;;;13.98;11.00;;;486.80;2380.80;;;;;;5035872;28;20025;-82
2023/06/06 02:10:56;;;;;;;16.60;10.48;;;486.90;2380.80;;;;;;5035562;28;20029;-83
2023/06/06 02:13:22;;;;;;;12.93;11.10;;;487.00;2380.80;;;;;;5036305;28;20041;-81
2023/06/06 02:15:48;;;;;;;14.45;10.95;;;486.80;2380.80;;;;;;5036120;28;20026;-82
2023/06/06 02:18:14;;;;;;;14.70;11.50;;;486.80;2380.80;;;;;;5035993;28;20465;-82
2023/06/06 02:20:40;;;;;;;11.90;10.65;;;486.90;2380.80;;;;;;5037332;28;20056;-82
2023/06/06 02:23:06;;;;;;;15.45;9.40;;;487.00;2380.80;;;;;;5036367;28;20080;-83
2023/06/06 02:25:33;;;;;;;13.88;10.57;;;487.00;2380.80;;;;;;5036119;28;20029;-82
2023/06/06 02:27:59;;;;;;;11.48;9.77;;;487.00;2380.80;;;;;;5036339;28;20093;-82
2023/06/06 02:30:25;;;;;;;13.10;10.30;;;487.00;2380.80;;;;;;5035557;28;20071;-82
2023/06/06 02:32:51;;;;;;;10.73;8.50;;;512.00;2380.80;;;;;;5035367;28;20040;-83
2023/06/06 02:35:21;;;;;;;15.82;9.10;;;487.00;2380.80;;;;;;5035179;28;20033;-82
2023/06/06 02:37:47;;;;;;;10.82;8.52;;;487.00;2380.80;;;;;;5034573;28;20100;-81
2023/06/06 02:40:13;;;;;;;12.50;7.93;;;487.00;2380.80;;;;;;5071537;28;20025;-83
2023/06/06 02:42:39;;;;;;;12.43;8.23;;;487.00;2380.80;;;;;;5055080;28;20060;-84
2023/06/06 02:45:09;;;;;;;8.80;7.18;;;487.00;2380.80;;;;;;5055960;28;20491;-83
2023/06/06 02:47:35;;;;;;;10.75;7.82;;;487.00;2380.80;;;;;;5038957;28;20085;-82
2023/06/06 02:50:05;;;;;;;11.23;7.88;;;487.00;2380.80;;;;;;5050417;28;20044;-83
2023/06/06 02:52:33;;;;;;;13.75;7.85;;;487.00;2380.80;;;;;;5054276;28;20029;-83
2023/06/06 02:54:59;;;;;;;12.15;8.27;;;487.00;2380.80;;;;;;5053986;28;20124;-81
2023/06/06 02:57:25;;;;;;;13.02;10.45;;;487.00;2380.80;;;;;;5054738;28;20123;-82
2023/06/06 02:59:52;;;;;;;13.80;10.85;;;487.00;2380.80;;;;;;5054679;28;20029;-85
2023/06/06 03:02:18;;;;;;;15.75;11.55;;;487.00;2380.80;;;;;;5055337;28;20042;-87
2023/06/06 03:04:45;;;;;;;13.57;10.73;;;487.00;2380.80;;;;;;5056022;28;20369;-86
2023/06/06 03:07:12;;;;;;;18.80;12.18;;;486.90;2380.80;;;;;;5056201;28;20444;-87
2023/06/06 03:09:38;;;;;;;13.32;10.95;;;487.00;2380.80;;;;;;5056374;28;20028;-86
2023/06/06 03:12:04;;;;;;;14.63;9.63;;;487.00;2380.80;;;;;;5055107;28;20032;-87
2023/06/06 03:14:31;;;;;;;12.95;9.48;;;487.00;2380.80;;;;;;5056300;28;20033;-87
2023/06/06 03:16:57;;;;;;;14.77;9.02;;;487.00;2380.80;;;;;;5055301;28;20413;-87
2023/06/06 03:19:23;;;;;;;20.65;10.60;;;487.00;2380.80;;;;;;5055218;28;20453;-88
2023/06/06 03:21:49;;;;;;;15.43;11.18;;;486.90;2380.80;;;;;;5055021;28;20025;-87
2023/06/06 03:24:15;;;;;;;16.83;10.95;;;487.00;2380.80;;;;;;5056055;28;20032;-87
2023/06/06 03:26:48;;;;;;;15.55;10.65;;;487.00;2380.80;;;;;;5055058;28;20032;-88
2023/06/06 03:29:15;;;;;;;17.38;12.38;;;487.00;2380.80;;;;;;5054992;28;20025;-87
2023/06/06 03:31:41;;;;;;;15.52;12.02;;;487.00;2380.80;;;;;;5054761;28;20029;-83
2023/06/06 03:34:07;;;;;;;16.27;11.63;;;487.00;2380.80;;;;;;5053821;28;20435;-83
2023/06/06 03:36:36;;;;;;;18.95;11.35;;;486.90;2380.80;;;;;;5054842;28;20033;-83
2023/06/06 03:39:03;;;;;;;12.02;9.50;;;486.90;2380.80;;;;;;5042525;28;20033;-83
2023/06/06 03:41:30;;;;;;;11.20;7.90;;;486.90;2380.80;;;;;;5050240;28;20120;-82
2023/06/06 03:43:56;;;;;;;12.30;8.20;;;486.80;2380.80;;;;;;5050585;28;20417;-83
2023/06/06 03:46:22;;;;;;;9.63;8.27;;;486.80;2380.80;;;;;;5050720;28;20026;-83
2023/06/06 03:48:48;;;;;;;10.90;7.18;;;486.90;2380.80;;;;;;5050314;28;20022;-82
2023/06/06 03:51:14;;;;;;;12.18;7.20;;;487.00;2380.80;;;;;;5050175;28;20026;-83
2023/06/06 03:53:41;;;;;;;12.60;6.20;;;487.00;2380.80;;;;;;5034708;28;20112;-84
2023/06/06 03:56:07;;;;;;;14.63;6.20;;;487.00;2380.80;;;;;;5050394;28;20057;-83
2023/06/06 03:58:33;;;;;;;10.38;5.80;;;487.00;2380.80;;;;;;5050527;28;20037;-83
2023/06/06 04:00:59;;;;;;;11.50;5.60;;;487.00;2380.80;;;;;;5033503;28;20079;-84
2023/06/06 04:03:36;;;;;;;9.00;5.68;;;487.10;2380.80;;;;;;5049889;28;20021;-82
2023/06/06 04:06:04;;;;;;;11.10;5.68;;;487.10;2380.80;;;;;;5032932;28;20480;-82
2023/06/06 04:08:31;;;;;;;7.13;5.18;;;487.10;2380.80;;;;;;5034680;28;20091;-83
2023/06/06 04:10:57;;;;;;;8.13;4.70;;;487.10;2380.80;;;;;;5034437;28;20025;-83
2023/06/06 04:13:23;;;;;;;7.72;4.30;;;487.10;2380.80;;;;;;5034376;28;20024;-82
2023/06/06 04:15:49;;;;;;;9.00;4.70;;;487.20;2380.80;;;;;;5049814;28;20380;-82
2023/06/06 04:18:15;;;;;;;9.13;5.10;;;487.10;2380.80;;;;;;5049839;28;20059;-82
2023/06/06 04:20:43;;;;;;;8.95;4.25;;;487.10;2380.80;;;;;;5049559;28;20079;-82
2023/06/06 04:23:09;;;;;;;5.57;3.65;;;487.10;2380.80;;;;;;5049601;28;20021;-83
2023/06/06 04:25:35;;;;;;;8.43;4.30;;;487.20;2380.80;;;;;;5033972;28;20048;-83
2023/06/06 04:28:01;;;;;;;10.32;3.40;;;487.20;2380.80;;;;;;5049805;28;20464;-82
2023/06/06 04:30:29;;;;;;;8.15;4.13;;;487.30;2380.80;;;;;;5049337;28;20032;-83
2023/06/06 04:32:56;;;;;;;7.65;3.70;;;487.30;2380.80;;;;;;5049467;28;20025;-82
2023/06/06 04:35:22;;;;;;;11.02;3.78;;;487.30;2380.80;;;;;;5033107;28;20030;-83
2023/06/06 04:37:50;;;;;;;7.55;3.38;;;487.30;2380.80;;;;;;5034213;28;20071;-82
2023/06/06 04:40:16;;;;;;;6.70;3.97;;;487.30;2380.80;;;;;;5049429;28;20610;-83
2023/06/06 04:42:42;;;;;;;8.45;3.88;;;487.30;2380.80;;;;;;5034194;28;20048;-82
2023/06/06 04:45:09;;;;;;;10.23;3.53;;;487.30;2380.80;;;;;;5033988;28;20057;-81
2023/06/06 04:47:37;;;;;;;11.43;3.90;;;487.30;2380.80;;;;;;5032970;28;20036;-83
2023/06/06 04:50:04;;;;;;;6.68;3.60;;;512.00;2380.80;;;;;;5049218;28;20075;-81
2023/06/06 04:52:29;;;;;;;7.80;3.83;;;512.00;2380.80;;;;;;5033862;28;20072;-81
2023/06/06 04:54:55;;;;;;;8.30;3.15;;;512.00;2380.80;;;;;;5049275;28;20372;-82
2023/06/06 04:57:23;;;;;;;8.05;4.13;;;512.00;2380.80;;;;;;5049219;28;20065;-82
2023/06/06 04:59:52;;;;;;;8.23;3.58;;;487.30;2380.80;;;;;;5049522;28;20464;-82
2023/06/06 05:02:22;;;;;;;8.25;3.92;;;512.00;2380.80;;;;;;5049448;28;20049;-83
2023/06/06 05:04:55;;;;;;;8.40;3.95;;;512.00;2380.80;;;;;;5048836;28;20050;-82
2023/06/06 05:07:24;;;;;;;;;;;512.00;2380.80;;;;;;5049851;28;20029;-83
2023/06/06 05:09:54;;;;;;;9.68;3.72;;;512.00;2380.80;;;;;;5049385;28;19912;-82
2023/06/06 05:12:21;;;;;;;9.93;4.72;;;512.00;2380.80;;;;;;5049116;28;20516;-82
2023/06/06 05:14:48;;;;;;;6.38;4.28;;;512.00;2380.80;;;;;;5049278;28;20034;-82
2023/06/06 05:17:17;;;;;;;8.38;3.58;;;512.00;2380.80;;;;;;5051305;28;20099;-82
2023/06/06 05:19:46;;;;;;;10.32;3.28;;;487.30;2380.80;;;;;;5053165;28;20032;-82
2023/06/06 05:22:16;;;;;;;7.38;3.90;;;512.00;2380.80;;;;;;5053255;28;20078;-83
2023/06/06 05:24:43;;;;;;;7.57;3.40;;;487.30;2380.80;;;;;;5053322;28;20033;-83
2023/06/06 05:27:08;;;;;;;8.38;3.78;;;487.30;2380.80;;;;;;5052778;28;20029;-83
2023/06/06 05:29:35;;;;;;;7.25;3.85;;;512.00;2380.80;;;;;;5037687;28;20479;-82
2023/06/06 05:32:01;;;;;;;10.18;4.30;;;512.10;2380.80;;;;;;5052946;28;20076;-82
2023/06/06 05:34:26;;;;;;;8.15;3.92;;;512.10;2380.80;;;;;;5052972;28;20034;-81
2023/06/06 05:36:52;;;;;;;5.93;3.78;;;512.20;2380.80;;;;;;5037546;28;20117;-82
2023/06/06 05:39:19;;;;;;;9.27;3.72;;;512.20;2380.80;;;;;;5052713;28;20095;-81
2023/06/06 05:41:47;;;;;;;8.10;4.10;;;512.20;2380.80;;;;;;5052851;28;20469;-81
2023/06/06 05:44:13;;;;;;;8.68;3.17;;;512.20;2380.80;;;;;;5052710;28;20032;-81
2023/06/06 05:46:39;;;;;;;10.50;3.55;;;512.20;2380.80;;;;;;5052623;28;20026;-82
2023/06/06 05:49:05;;;;;;;6.05;3.25;;;512.30;2380.80;;;;;;5052752;28;20576;-82
2023/06/06 05:51:31;;;;;;;4.63;3.00;;;512.50;2380.80;;;;;;5053048;28;20671;-82
2023/06/06 05:53:57;;;;;;;11.55;3.53;;;512.50;2380.80;;;;;;5052443;28;20025;-82
2023/06/06 05:56:22;;;;;;;15.68;3.92;;;512.60;2380.80;;;;;;5037070;28;20483;-81
2023/06/06 05:58:49;;;;;;;12.13;4.20;;;512.70;2380.80;;;;;;5037094;28;20514;-81
2023/06/06 06:01:16;;;;;;;7.88;3.80;;;512.70;2380.80;;;;;;5052348;28;20389;-82
2023/06/06 06:03:43;;;;;;;7.13;3.50;;;512.80;2380.80;;;;;;5037322;28;20483;-81
2023/06/06 06:06:09;;;;;;;7.32;3.13;;;512.80;2380.80;;;;;;5052074;28;20504;-82
2023/06/06 06:08:35;;;;;;;10.02;4.00;;;512.90;2380.80;;;;;;5036785;28;20022;-82
2023/06/06 06:11:02;;;;;;;9.35;3.05;;;512.90;2380.80;;;;;;5052236;28;20489;-82
2023/06/06 06:13:28;;;;;;;8.27;4.10;;;512.90;2380.80;;;;;;5051911;28;20121;-81
2023/06/06 06:15:54;;;;;;;8.57;3.22;;;512.90;2380.80;;;;;;5051899;28;20124;-82
2023/06/06 06:18:20;;;;;;;6.78;3.72;;;512.90;2380.80;;;;;;5036726;28;20079;-81
2023/06/06 06:20:46;;;;;;;9.15;4.47;;;537.60;2406.40;;;;;;5036417;28;20029;-82
2023/06/06 06:23:12;;;;;;;9.25;4.78;;;537.70;2406.40;;;;;;5036411;28;20030;-82
2023/06/06 06:25:38;;;;;;;6.28;4.18;;;537.70;2406.40;;;;;;5036776;28;20125;-82
2023/06/06 06:28:04;;;;;;;6.30;3.60;;;537.70;2406.40;;;;;;5035288;28;20037;-82
2023/06/06 06:30:30;;;;;;;11.18;3.80;;;537.70;2406.40;;;;;;5052218;28;20025;-81
2023/06/06 06:32:56;;;;;;;9.32;4.00;;;537.70;2406.40;;;;;;5036535;28;20030;-82
2023/06/06 06:35:22;;;;;;;7.57;4.00;;;537.70;2406.40;;;;;;5035904;28;20476;-82
2023/06/06 06:37:47;;;;;;;7.05;3.70;;;537.80;2406.40;;;;;;5035181;28;20037;-82
2023/06/06 06:40:14;;;;;;;5.88;3.67;;;537.80;2406.40;;;;;;5051834;28;20048;-82
2023/06/06 06:42:44;;;;;;;9.98;4.00;;;538.40;2406.40;;;;;;5035083;28;20029;-82
2023/06/06 06:45:12;;;;;;;8.27;3.80;;;537.80;2406.40;;;;;;5051849;28;20487;-82
2023/06/06 06:47:38;;;;;;;7.28;3.85;;;537.80;2406.40;;;;;;5051570;28;20160;-82
2023/06/06 06:50:06;;;;;;;8.30;3.92;;;537.80;2406.40;;;;;;5061311;28;20611;-82
2023/06/06 06:52:33;;;;;;;9.23;3.75;;;537.80;2406.40;;;;;;5056043;28;20104;-82
2023/06/06 06:55:01;;;;;;;8.82;4.20;;;537.80;2406.40;;;;;;5071296;28;20484;-83
2023/06/06 06:57:28;;;;;;;12.80;5.32;;;537.70;2406.40;;;;;;5055306;28;20029;-82
2023/06/06 06:59:58;;;;;;;12.07;5.20;;;537.70;2406.40;;;;;;5071437;28;20063;-82
2023/06/06 07:02:26;;;;;;;11.60;5.78;;;537.60;2406.40;;;;;;5071250;28;20039;-82
2023/06/06 07:04:59;;;;;;;13.35;4.60;;;512.90;2380.80;;;;;;5070793;28;20048;-82
2023/06/06 07:07:25;;;;;;;6.97;4.72;;;512.70;2380.80;;;;;;5071310;28;20028;-82
2023/06/06 07:09:52;;;;;;;10.77;5.63;;;512.70;2380.80;;;;;;5071073;28;20079;-82
2023/06/06 07:12:19;;;;;;;13.18;5.65;;;512.70;2380.80;;;;;;5070935;28;20029;-82
2023/06/06 07:14:45;;;;;;;13.13;5.00;;;512.90;2380.80;;;;;;5055630;28;20350;-83
2023/06/06 07:17:11;;;;;;;10.13;4.78;;;512.90;2380.80;;;;;;5070729;28;20029;-81
2023/06/06 07:19:37;;;;;;;10.35;4.95;;;512.90;2380.80;;;;;;5071018;28;20021;-83
2023/06/06 07:22:04;;;;;;;10.85;5.20;;;537.60;2406.40;;;;;;5070909;28;20033;-82
2023/06/06 07:24:30;;;;;;;11.25;5.82;;;512.80;2380.80;;;;;;5070549;28;20429;-82
2023/06/06 07:26:57;;;;;;;10.70;4.47;;;537.70;2406.40;;;;;;5070861;28;20025;-82
2023/06/06 07:29:23;;;;;;;6.93;4.40;;;537.80;2406.40;;;;;;5082845;28;20021;-80
2023/06/06 07:31:52;;;;;;;8.50;4.20;;;537.80;2406.40;;;;;;5093462;28;20089;-81
2023/06/06 07:34:17;;;;;;;7.40;3.40;;;537.80;2406.40;;;;;;5055127;28;20029;-82
2023/06/06 07:36:43;;;;;;;12.10;4.45;;;537.90;2406.40;;;;;;5055234;28;20035;-82
2023/06/06 07:39:09;;;;;;;7.13;4.00;;;538.00;2406.40;;;;;;5069827;28;20036;-81
2023/06/06 07:41:35;;;;;;;9.80;4.43;;;538.10;2406.40;;;;;;5070546;28;20096;-82
2023/06/06 07:44:04;;;;;;;12.15;4.63;;;538.30;2406.40;;;;;;5070424;28;20461;-81
2023/06/06 07:46:30;;;;;;;10.60;5.95;;;538.40;2406.40;;;;;;5054663;28;20025;-81
2023/06/06 07:48:55;;;;;;;8.50;4.50;;;538.50;2406.40;;;;;;5054785;28;20028;-81
2023/06/06 07:51:21;;;;;;;7.50;4.50;;;563.30;2432.00;;;;;;5069928;28;20412;-81
2023/06/06 07:53:47;;;;;;;12.93;6.15;;;563.30;2432.00;;;;;;5054108;28;20377;-81
2023/06/06 07:56:17;;;;;;;9.45;4.55;;;563.40;2432.00;;;;;;5070024;28;20033;-80
2023/06/06 07:58:51;;;;;;;10.20;5.00;;;563.50;2432.00;;;;;;5069963;28;20096;-84
2023/06/06 08:01:19;;;;;;;9.93;5.07;;;563.60;2432.00;;;;;;5071040;28;20041;-85
2023/06/06 08:03:49;;;;;;;9.05;4.85;;;563.70;2432.00;;;;;;5071238;28;20162;-86
2023/06/06 08:06:17;;;;;;;9.98;4.47;;;563.50;2432.00;;;;;;5070796;28;20041;-86
2023/06/06 08:08:43;;;;;;;18.27;6.82;;;563.70;2432.00;;;;;;5070692;28;20469;-85
2023/06/06 08:11:09;;;;;;;10.38;5.32;;;564.00;2432.00;;;;;;5070653;28;20106;-85
2023/06/06 08:13:35;;;;;;;7.80;5.40;;;564.10;2432.00;;;;;;5070122;28;20471;-82
2023/06/06 08:16:01;;;;;;;10.80;5.82;;;564.10;2432.00;;;;;;5069831;28;20061;-82
2023/06/06 08:18:28;;;;;;;15.23;6.70;;;564.10;2432.00;;;;;;5069704;28;20457;-85
2023/06/06 08:20:54;;;;;;;12.88;5.95;;;564.10;2432.00;;;;;;5053952;28;20541;-84
2023/06/06 08:23:20;;;;;;;12.88;5.47;;;588.80;2432.00;;;;;;5053943;28;20100;-82
2023/06/06 08:25:46;;;;;;;12.95;6.55;;;588.90;2432.00;;;;;;5052781;28;20124;-84
2023/06/06 08:28:11;;;;;;;16.23;6.68;;;588.90;2432.00;;;;;;5052765;28;20029;-83
2023/06/06 08:30:38;;;;;;;13.65;6.22;;;589.20;2432.00;;;;;;5054020;28;20087;-84
2023/06/06 08:33:04;;;;;;;11.13;7.53;;;589.60;2432.00;;;;;;5052896;28;20029;-87
2023/06/06 08:35:29;;;;;;;9.50;6.78;;;589.50;2432.00;;;;;;5053031;28;20056;-85
2023/06/06 08:37:55;;;;;;;11.75;6.38;;;589.70;2432.00;;;;;;5052906;28;20033;-86
2023/06/06 08:40:21;;;;;;;17.40;7.47;;;589.70;2432.00;;;;;;5052900;28;20029;-88
2023/06/06 08:42:50;;;;;;;12.88;6.88;;;614.40;2432.00;;;;;;5053874;28;20483;-85
2023/06/06 08:45:21;;;;;;;15.98;7.75;;;614.40;2432.00;;;;;;5052967;28;20060;-84
2023/06/06 08:47:48;;;;;;;13.32;9.80;;;614.60;2432.00;;;;;;5052675;28;20112;-83
2023/06/06 08:50:15;;;;;;;14.82;6.63;;;614.60;2432.00;;;;;;5050944;28;20078;-84
2023/06/06 08:52:42;;;;;;;14.80;7.70;;;614.60;2432.00;;;;;;5051942;28;20079;-84
2023/06/06 08:55:08;;;;;;;14.50;8.45;;;614.70;2432.00;;;;;;5053146;28;20461;-84
2023/06/06 08:57:41;;;;;;;11.55;6.63;;;614.90;2432.00;;;;;;5052329;28;20025;-84
2023/06/06 09:00:11;;;;;;;10.57;7.38;;;;;;;;;;5052470;28;20120;-84
2023/06/06 09:02:41;;;;;;;10.43;7.28;;;615.30;2432.00;;;;;;5053397;28;20013;-85
2023/06/06 09:05:13;;;;;;;12.32;7.35;;;640.10;2432.00;;;;;;5051926;28;20056;-85
2023/06/06 09:07:40;;;;;;;14.00;8.48;;;640.30;2432.00;;;;;;5053562;28;20027;-81
2023/06/06 09:10:06;;;;;;;12.20;7.30;;;640.40;2432.00;;;;;;5051784;28;20361;-82
2023/06/06 09:12:46;;;;;;;9.50;6.63;;;640.40;2432.00;;;;;;5052158;28;20025;-82
2023/06/06 09:15:13;;;;;;;12.45;6.97;;;640.60;2432.00;;;;;;5053155;28;20465;-86
2023/06/06 09:17:40;;;;;;;11.32;8.25;;;640.50;2432.00;;;;;;5051955;28;20110;-83
2023/06/06 09:20:13;;;;;;;17.10;7.57;;;640.70;2432.00;;;;;;5050674;28;20029;-84
2023/06/06 09:22:40;;;;;;;14.63;7.22;;;640.90;2432.00;;;;;;5044053;28;20059;-84
2023/06/06 09:25:15;;;;;;;13.52;7.65;;;640.90;2432.00;;;;;;5033287;28;20461;-84
2023/06/06 09:27:41;;;;;;;13.70;8.40;;;665.70;2432.00;;;;;;5032449;28;20072;-83
2023/06/06 09:30:19;;;;;;;11.25;7.90;;;666.00;2432.00;;;;;;5031914;28;20038;-84
2023/06/06 09:32:46;;;;;;;10.10;8.48;;;665.90;2432.00;;;;;;5032481;28;20091;-83
2023/06/06 09:35:15;;;;;;;10.18;8.85;;;666.00;2432.00;;;;;;5032991;28;20457;-84
2023/06/06 09:37:40;;;;;;;14.65;10.43;;;666.50;2432.00;;;;;;5032847;28;20037;-80
2023/06/06 09:40:11;;;;;;;10.00;7.75;;;691.30;2432.00;;;;;;5032178;28;20156;-82
2023/06/06 09:42:38;;;;;;;13.82;8.60;;;691.30;2432.00;;;;;;5032002;28;20076;-82
2023/06/06 09:45:14;;;;;;;11.85;8.13;;;666.50;2432.00;;;;;;5031890;28;20047;-82
2023/06/06 09:47:41;;;;;;;8.63;7.03;;;666.50;2432.00;;;;;;5032299;28;20025;-81
2023/06/06 09:50:07;;;;;;;8.90;7.97;;;666.20;2432.00;;;;;;5032173;28;20368;-82
2023/06/06 09:52:33;;;;;;;11.57;7.90;;;666.50;2432.00;;;;;;5032006;28;20021;-86
2023/06/06 09:55:00;;;;;;;13.15;8.15;;;666.30;2432.00;;;;;;5042158;28;20029;-86
2023/06/06 09:57:27;;;;;;;13.85;7.85;;;666.40;2432.00;;;;;;5053033;28;20059;-86
2023/06/06 09:59:54;;;;;;;10.95;8.20;;;691.20;2432.00;;;;;;5052815;28;20032;-85
2023/06/06 10:02:24;;;;;;;9.80;7.90;;;666.30;2432.00;;;;;;5053023;28;20063;-86
2023/06/06 10:04:52;;;;;;;17.88;9.07;;;666.50;2432.00;;;;;;5056015;28;20052;-84
2023/06/06 10:07:20;;;;;;;11.13;8.77;;;666.40;2432.00;;;;;;5057095;28;20048;-85
2023/06/06 10:09:47;;;;;;;12.02;9.15;;;666.40;2432.00;;;;;;5056081;28;20139;-85
2023/06/06 10:12:14;;;;;;;9.75;7.45;;;666.50;2432.00;;;;;;5055859;28;20032;-85
2023/06/06 10:14:40;;;;;;;9.48;8.48;;;666.20;2432.00;;;;;;5056575;28;20048;-82
2023/06/06 10:17:09;;;;;;;8.63;7.60;;;666.50;2432.00;;;;;;5056521;28;20469;-82
2023/06/06 10:19:37;;;;;;;9.52;7.20;;;691.30;2432.00;;;;;;5055074;28;20480;-83
2023/06/06 10:22:02;;;;;;;11.88;8.15;;;691.30;2432.00;;;;;;5055232;28;20370;-81
2023/06/06 10:24:28;;;;;;;11.48;8.13;;;691.40;2432.00;;;;;;5056647;28;20059;-82
2023/06/06 10:27:10;;;;;;;14.35;9.05;;;691.50;2432.00;;;;;;5054988;28;20465;-82
2023/06/06 10:29:56;;;;;;;13.00;8.77;;;691.40;2432.00;;;;;;5055253;28;20035;-84
2023/06/06 10:32:34;;;;;;;13.13;9.00;;;691.50;2432.00;;;;;;5024378;28;20459;-83
2023/06/06 10:35:03;;;;;;;11.23;9.10;;;691.50;2432.00;;;;;;5055873;28;20353;-82
2023/06/06 10:37:33;;;;;;;10.90;9.00;;;691.40;2432.00;;;;;;5055088;28;20112;-82
2023/06/06 10:40:04;;;;;;;11.25;8.13;;;691.20;2432.00;;;;;;5055646;28;20028;-82
2023/06/06 10:42:38;;;;;;;11.20;10.00;;;691.20;2432.00;;;;;;5055473;28;20469;-82
2023/06/06 10:45:06;;;;;;;11.27;9.27;;;691.30;2432.00;;;;;;5055012;28;20025;-81
2023/06/06 10:47:40;;;;;;;12.27;8.95;;;691.30;2432.00;;;;;;5054672;28;20460;-81
2023/06/06 10:50:10;;;;;;;15.05;9.57;;;691.30;2432.00;;;;;;5054655;28;20029;-80
2023/06/06 10:52:46;;;;;;;15.18;10.07;;;691.40;2432.00;;;;;;5055411;28;20021;-82
2023/06/06 10:55:22;;;;;;;11.02;9.43;;;691.50;2432.00;;;;;;5054045;28;20029;-81
2023/06/06 10:58:03;;;;;;;18.42;11.70;;;691.50;2432.00;;;;;;5071282;28;20073;-82
2023/06/06 11:00:34;;;;;;;12.40;9.52;;;691.60;2432.00;;;;;;5056106;28;20025;-82
2023/06/06 11:03:13;;;;;;;12.55;10.48;;;691.60;2432.00;;;;;;5087065;28;20047;-83
2023/06/06 11:06:00;;;;;;;17.02;13.13;;;691.50;2432.00;;;;;;5070997;28;20049;-82
2023/06/06 11:08:45;;;;;;;15.48;12.13;;;691.50;2432.00;;;;;;5050427;28;20475;-82
2023/06/06 11:11:30;;;;;;;15.68;10.43;;;691.70;2432.00;;;;;;5034606;28;20025;-82
2023/06/06 11:14:07;;;;;;;11.55;10.32;;;691.60;2432.00;;;;;;5033540;28;20037;-81
2023/06/06 11:16:39;;;;;;;14.98;11.10;;;691.60;2432.00;;;;;;5042951;28;20029;-83
2023/06/06 11:19:09;;;;;;;;;;;691.70;2432.00;;;;;;5054614;28;20365;-85
2023/06/06 11:21:37;;;;;;;14.10;10.32;;;691.70;2432.00;;;;;;5054036;28;20310;-84
2023/06/06 11:24:03;;;;;;;15.63;9.63;;;691.70;2432.00;;;;;;5053471;28;20036;-83
2023/06/06 11:26:29;;;;;;;12.38;9.45;;;691.70;2432.00;;;;;;5070657;28;20354;-81
2023/06/06 11:28:56;;;;;;;15.48;9.20;;;691.70;2432.00;;;;;;5070827;28;20047;-83
2023/06/06 11:31:26;;;;;;;17.00;8.77;;;691.80;2432.00;;;;;;5054659;28;20056;-82
2023/06/06 11:33:53;;;;;;;10.80;7.22;;;716.80;2432.00;;;;;;5053989;28;20082;-82
2023/06/06 11:36:20;;;;;;;10.77;9.02;;;692.10;2432.00;;;;;;5053788;28;20736;-84
2023/06/06 11:38:46;;;;;;;11.13;8.25;;;717.00;2432.00;;;;;;5053958;28;20028;-83
2023/06/06 11:41:12;;;;;;;11.32;9.10;;;717.00;2432.00;;;;;;5053705;28;20028;-84
2023/06/06 11:43:48;;;;;;;11.07;7.97;;;716.80;2432.00;;;;;;5053747;28;20032;-83
2023/06/06 11:46:13;;;;;;;12.38;8.52;;;692.00;2406.40;;;;;;5054781;28;20057;-82
2023/06/06 11:48:39;;;;;;;11.70;8.20;;;691.90;2432.00;;;;;;5053179;28;20025;-81
2023/06/06 11:51:14;;;;;;;9.73;8.43;;;691.80;2432.00;;;;;;5054244;28;20021;-82
2023/06/06 11:53:41;;;;;;;9.13;7.97;;;691.80;2432.00;;;;;;5052895;28;20031;-81
2023/06/06 11:56:13;;;;;;;13.43;8.20;;;691.60;2432.00;;;;;;5053024;28;20083;-81
2023/06/06 11:58:41;;;;;;;10.80;7.32;;;691.60;2432.00;;;;;;5052813;28;20083;-80
2023/06/06 12:01:09;;;;;;;11.63;8.10;;;691.50;2432.00;;;;;;5053189;28;20476;-81
2023/06/06 12:03:37;;;;;;;10.27;8.00;;;691.40;2432.00;;;;;;5054375;28;20021;-81
2023/06/06 12:06:05;;;;;;;14.00;8.02;;;691.30;2432.00;;;;;;5052757;28;20041;-81
2023/06/06 12:08:35;;;;;;;9.45;7.85;;;691.30;2432.00;;;;;;5053034;28;20083;-81
2023/06/06 12:11:26;;;;;;;11.18;7.88;;;691.20;2432.00;;;;;;5052704;28;20021;-81